sensor_id;sensor_type;location;lat;lon;timestamp;temperature;humidity
47961;DHT22;33721;48.852;9.936;2022-07-10T00:00:34;17.30;99.90
47961;DHT22;33721;48.852;9.936;2022-07-10T00:03:04;17.30;99.90
47961;DHT22;33721;48.852;9.936;2022-07-10T00:05:30;17.30;99.90
47961;DHT22;33721;48.852;9.936;2022-07-10T00:07:56;17.20;99.90
47961;DHT22;33721;48.852;9.936;2022-07-10T00:10:23;17.20;99.90
47961;DHT22;33721;48.852;9.936;2022-07-10T00:12:50;17.10;99.90
47961;DHT22;33721;48.852;9.936;2022-07-10T00:15:17;17.10;99.90
47961;DHT22;33721;48.852;9.936;2022-07-10T00:17:43;17.10;99.90
47961;DHT22;33721;48.852;9.936;2022-07-10T00:20:10;17.00;99.90
47961;DHT22;33721;48.852;9.936;2022-07-10T00:22:37;16.90;99.90
47961;DHT22;33721;48.852;9.936;2022-07-10T00:25:04;16.90;99.90
47961;DHT22;33721;48.852;9.936;2022-07-10T00:27:31;16.90;99.90
47961;DHT22;33721;48.852;9.936;2022-07-10T00:29:57;16.90;99.90
47961;DHT22;33721;48.852;9.936;2022-07-10T00:32:23;16.80;99.90
47961;DHT22;33721;48.852;9.936;2022-07-10T00:34:50;16.80;99.90
47961;DHT22;33721;48.852;9.936;2022-07-10T00:37:16;16.70;99.90
47961;DHT22;33721;48.852;9.936;2022-07-10T00:39:42;16.70;99.90
47961;DHT22;33721;48.852;9.936;2022-07-10T00:42:11;16.70;99.90
47961;DHT22;33721;48.852;9.936;2022-07-10T00:44:39;16.60;99.90
47961;DHT22;33721;48.852;9.936;2022-07-10T00:47:06;16.50;99.90
47961;DHT22;33721;48.852;9.936;2022-07-10T00:49:32;16.50;99.90
47961;DHT22;33721;48.852;9.936;2022-07-10T00:52:00;16.40;99.90
47961;DHT22;33721;48.852;9.936;2022-07-10T00:54:27;16.30;99.90
47961;DHT22;33721;48.852;9.936;2022-07-10T00:56:53;16.20;99.90
47961;DHT22;33721;48.852;9.936;2022-07-10T00:59:19;16.10;99.90
47961;DHT22;33721;48.852;9.936;2022-07-10T01:01:45;16.20;99.90
47961;DHT22;33721;48.852;9.936;2022-07-10T01:04:11;16.10;99.90
47961;DHT22;33721;48.852;9.936;2022-07-10T01:06:37;16.00;99.90
47961;DHT22;33721;48.852;9.936;2022-07-10T01:09:03;15.90;99.90
47961;DHT22;33721;48.852;9.936;2022-07-10T01:11:29;15.80;99.90
47961;DHT22;33721;48.852;9.936;2022-07-10T01:13:55;15.80;99.90
47961;DHT22;33721;48.852;9.936;2022-07-10T01:16:21;15.70;99.90
47961;DHT22;33721;48.852;9.936;2022-07-10T01:18:47;15.70;99.90
47961;DHT22;33721;48.852;9.936;2022-07-10T01:21:27;15.70;99.90
47961;DHT22;33721;48.852;9.936;2022-07-10T01:23:53;15.80;99.90
47961;DHT22;33721;48.852;9.936;2022-07-10T01:26:20;15.70;99.90
47961;DHT22;33721;48.852;9.936;2022-07-10T01:28:53;15.60;99.90
47961;DHT22;33721;48.852;9.936;2022-07-10T01:31:20;15.60;99.90
47961;DHT22;33721;48.852;9.936;2022-07-10T01:33:46;15.60;99.90
47961;DHT22;33721;48.852;9.936;2022-07-10T01:36:12;15.60;99.90
47961;DHT22;33721;48.852;9.936;2022-07-10T01:38:39;15.60;99.90
47961;DHT22;33721;48.852;9.936;2022-07-10T01:41:06;15.50;99.90
47961;DHT22;33721;48.852;9.936;2022-07-10T01:43:31;15.50;99.90
47961;DHT22;33721;48.852;9.936;2022-07-10T01:45:57;15.50;99.90
47961;DHT22;33721;48.852;9.936;2022-07-10T01:48:23;15.40;99.90
47961;DHT22;33721;48.852;9.936;2022-07-10T01:50:48;15.40;99.90
47961;DHT22;33721;48.852;9.936;2022-07-10T01:53:14;15.40;99.90
47961;DHT22;33721;48.852;9.936;2022-07-10T01:55:40;15.40;99.90
47961;DHT22;33721;48.852;9.936;2022-07-10T01:58:05;15.40;99.90
47961;DHT22;33721;48.852;9.936;2022-07-10T02:00:31;15.40;99.90
47961;DHT22;33721;48.852;9.936;2022-07-10T02:02:56;15.30;99.90
47961;DHT22;33721;48.852;9.936;2022-07-10T02:06:01;15.30;99.90
47961;DHT22;33721;48.852;9.936;2022-07-10T02:08:26;15.20;99.90
47961;DHT22;33721;48.852;9.936;2022-07-10T02:10:52;15.20;99.90
47961;DHT22;33721;48.852;9.936;2022-07-10T02:13:18;15.10;99.90
47961;DHT22;33721;48.852;9.936;2022-07-10T02:15:46;15.20;99.90
47961;DHT22;33721;48.852;9.936;2022-07-10T02:18:13;15.20;99.90
47961;DHT22;33721;48.852;9.936;2022-07-10T02:20:38;15.20;99.90
47961;DHT22;33721;48.852;9.936;2022-07-10T02:23:04;15.20;99.90
47961;DHT22;33721;48.852;9.936;2022-07-10T02:25:29;15.10;99.90
47961;DHT22;33721;48.852;9.936;2022-07-10T02:27:55;15.10;99.90
47961;DHT22;33721;48.852;9.936;2022-07-10T02:30:21;15.10;99.90
47961;DHT22;33721;48.852;9.936;2022-07-10T02:32:46;15.10;99.90
47961;DHT22;33721;48.852;9.936;2022-07-10T02:35:12;15.10;99.90
47961;DHT22;33721;48.852;9.936;2022-07-10T02:37:38;15.20;99.90
47961;DHT22;33721;48.852;9.936;2022-07-10T02:40:03;15.10;99.90
47961;DHT22;33721;48.852;9.936;2022-07-10T02:42:29;15.10;99.90
47961;DHT22;33721;48.852;9.936;2022-07-10T02:44:55;15.10;99.90
47961;DHT22;33721;48.852;9.936;2022-07-10T02:47:21;15.10;99.90
47961;DHT22;33721;48.852;9.936;2022-07-10T02:49:47;15.10;99.90
47961;DHT22;33721;48.852;9.936;2022-07-10T02:52:12;15.10;99.90
47961;DHT22;33721;48.852;9.936;2022-07-10T02:54:38;15.10;99.90
47961;DHT22;33721;48.852;9.936;2022-07-10T02:57:04;15.10;99.90
47961;DHT22;33721;48.852;9.936;2022-07-10T02:59:30;15.00;99.90
47961;DHT22;33721;48.852;9.936;2022-07-10T03:01:55;15.00;99.90
47961;DHT22;33721;48.852;9.936;2022-07-10T03:04:21;15.00;99.90
47961;DHT22;33721;48.852;9.936;2022-07-10T03:06:47;15.00;99.90
47961;DHT22;33721;48.852;9.936;2022-07-10T03:09:13;15.00;99.90
47961;DHT22;33721;48.852;9.936;2022-07-10T03:11:39;14.90;99.90
47961;DHT22;33721;48.852;9.936;2022-07-10T03:14:04;14.80;99.90
47961;DHT22;33721;48.852;9.936;2022-07-10T03:16:31;14.80;99.90
47961;DHT22;33721;48.852;9.936;2022-07-10T03:18:57;14.70;99.90
47961;DHT22;33721;48.852;9.936;2022-07-10T03:21:22;14.70;99.90
47961;DHT22;33721;48.852;9.936;2022-07-10T03:23:49;14.70;99.90
47961;DHT22;33721;48.852;9.936;2022-07-10T03:26:14;14.70;99.90
47961;DHT22;33721;48.852;9.936;2022-07-10T03:28:40;14.60;99.90
47961;DHT22;33721;48.852;9.936;2022-07-10T03:31:06;14.60;99.90
47961;DHT22;33721;48.852;9.936;2022-07-10T03:33:32;14.60;99.90
47961;DHT22;33721;48.852;9.936;2022-07-10T03:35:57;14.50;99.90
47961;DHT22;33721;48.852;9.936;2022-07-10T03:38:23;14.50;99.90
47961;DHT22;33721;48.852;9.936;2022-07-10T03:40:49;14.50;99.90
47961;DHT22;33721;48.852;9.936;2022-07-10T03:43:15;14.40;99.90
47961;DHT22;33721;48.852;9.936;2022-07-10T03:45:40;14.40;99.90
47961;DHT22;33721;48.852;9.936;2022-07-10T03:48:06;14.40;99.90
47961;DHT22;33721;48.852;9.936;2022-07-10T03:50:33;14.40;99.90
47961;DHT22;33721;48.852;9.936;2022-07-10T03:52:58;14.30;99.90
47961;DHT22;33721;48.852;9.936;2022-07-10T03:55:24;14.30;99.90
47961;DHT22;33721;48.852;9.936;2022-07-10T03:57:50;14.30;99.90
47961;DHT22;33721;48.852;9.936;2022-07-10T04:00:19;14.20;99.90
47961;DHT22;33721;48.852;9.936;2022-07-10T04:02:47;14.20;99.90
47961;DHT22;33721;48.852;9.936;2022-07-10T04:05:14;14.10;99.90
47961;DHT22;33721;48.852;9.936;2022-07-10T04:07:39;14.20;99.90
47961;DHT22;33721;48.852;9.936;2022-07-10T04:10:06;14.10;99.90
47961;DHT22;33721;48.852;9.936;2022-07-10T04:12:32;14.10;99.90
47961;DHT22;33721;48.852;9.936;2022-07-10T04:14:57;14.10;99.90
47961;DHT22;33721;48.852;9.936;2022-07-10T04:17:23;14.20;99.90
47961;DHT22;33721;48.852;9.936;2022-07-10T04:19:49;14.10;99.90
47961;DHT22;33721;48.852;9.936;2022-07-10T04:22:14;14.10;99.90
47961;DHT22;33721;48.852;9.936;2022-07-10T04:24:40;14.10;99.90
47961;DHT22;33721;48.852;9.936;2022-07-10T04:27:05;14.20;99.90
47961;DHT22;33721;48.852;9.936;2022-07-10T04:29:32;14.20;99.90
47961;DHT22;33721;48.852;9.936;2022-07-10T04:31:57;14.30;99.90
47961;DHT22;33721;48.852;9.936;2022-07-10T04:34:23;14.50;99.90
47961;DHT22;33721;48.852;9.936;2022-07-10T04:36:49;14.50;99.90
47961;DHT22;33721;48.852;9.936;2022-07-10T04:39:14;14.60;99.90
47961;DHT22;33721;48.852;9.936;2022-07-10T04:41:40;14.70;99.90
47961;DHT22;33721;48.852;9.936;2022-07-10T04:44:06;14.70;99.90
47961;DHT22;33721;48.852;9.936;2022-07-10T04:46:31;14.60;99.90
47961;DHT22;33721;48.852;9.936;2022-07-10T04:48:57;14.60;99.90
47961;DHT22;33721;48.852;9.936;2022-07-10T04:51:22;14.60;99.90
47961;DHT22;33721;48.852;9.936;2022-07-10T04:53:49;14.70;99.90
47961;DHT22;33721;48.852;9.936;2022-07-10T04:56:15;14.70;99.90
47961;DHT22;33721;48.852;9.936;2022-07-10T04:58:41;14.70;99.90
47961;DHT22;33721;48.852;9.936;2022-07-10T05:01:07;14.70;99.90
47961;DHT22;33721;48.852;9.936;2022-07-10T05:03:32;14.70;99.90
47961;DHT22;33721;48.852;9.936;2022-07-10T05:05:58;14.80;99.90
47961;DHT22;33721;48.852;9.936;2022-07-10T05:08:24;14.80;99.90
47961;DHT22;33721;48.852;9.936;2022-07-10T05:10:50;15.00;99.90
47961;DHT22;33721;48.852;9.936;2022-07-10T05:13:15;15.10;99.90
47961;DHT22;33721;48.852;9.936;2022-07-10T05:15:41;15.20;99.90
47961;DHT22;33721;48.852;9.936;2022-07-10T05:18:06;15.30;99.90
47961;DHT22;33721;48.852;9.936;2022-07-10T05:20:32;15.50;99.90
47961;DHT22;33721;48.852;9.936;2022-07-10T05:22:59;15.70;99.90
47961;DHT22;33721;48.852;9.936;2022-07-10T05:25:24;15.90;99.90
47961;DHT22;33721;48.852;9.936;2022-07-10T05:27:52;16.00;99.90
47961;DHT22;33721;48.852;9.936;2022-07-10T05:30:17;16.00;99.90
47961;DHT22;33721;48.852;9.936;2022-07-10T05:32:44;16.00;99.90
47961;DHT22;33721;48.852;9.936;2022-07-10T05:35:11;16.00;99.90
47961;DHT22;33721;48.852;9.936;2022-07-10T05:37:37;15.90;99.90
47961;DHT22;33721;48.852;9.936;2022-07-10T05:40:03;15.80;99.90
47961;DHT22;33721;48.852;9.936;2022-07-10T05:42:29;15.90;99.90
47961;DHT22;33721;48.852;9.936;2022-07-10T05:44:55;16.00;99.90
47961;DHT22;33721;48.852;9.936;2022-07-10T05:47:20;16.00;99.90
47961;DHT22;33721;48.852;9.936;2022-07-10T05:49:46;16.10;99.90
47961;DHT22;33721;48.852;9.936;2022-07-10T05:52:12;16.00;99.90
47961;DHT22;33721;48.852;9.936;2022-07-10T05:54:38;16.00;99.90
47961;DHT22;33721;48.852;9.936;2022-07-10T05:57:04;16.10;99.90
47961;DHT22;33721;48.852;9.936;2022-07-10T05:59:33;16.30;99.90
47961;DHT22;33721;48.852;9.936;2022-07-10T06:02:00;16.60;99.90
47961;DHT22;33721;48.852;9.936;2022-07-10T06:04:26;16.70;99.90
47961;DHT22;33721;48.852;9.936;2022-07-10T06:06:51;16.70;99.90
47961;DHT22;33721;48.852;9.936;2022-07-10T06:09:18;16.70;99.90
47961;DHT22;33721;48.852;9.936;2022-07-10T06:11:43;17.00;99.90
47961;DHT22;33721;48.852;9.936;2022-07-10T06:14:13;17.20;99.90
47961;DHT22;33721;48.852;9.936;2022-07-10T06:16:39;17.30;99.90
47961;DHT22;33721;48.852;9.936;2022-07-10T06:19:05;17.50;99.90
47961;DHT22;33721;48.852;9.936;2022-07-10T06:21:31;17.60;99.90
47961;DHT22;33721;48.852;9.936;2022-07-10T06:23:57;17.60;99.90
47961;DHT22;33721;48.852;9.936;2022-07-10T06:26:22;17.50;99.90
47961;DHT22;33721;48.852;9.936;2022-07-10T06:28:48;17.30;99.90
47961;DHT22;33721;48.852;9.936;2022-07-10T06:31:14;17.00;99.90
47961;DHT22;33721;48.852;9.936;2022-07-10T06:33:40;16.80;99.90
47961;DHT22;33721;48.852;9.936;2022-07-10T06:36:06;16.80;99.90
47961;DHT22;33721;48.852;9.936;2022-07-10T06:38:32;16.80;99.90
47961;DHT22;33721;48.852;9.936;2022-07-10T06:40:57;16.80;99.90
47961;DHT22;33721;48.852;9.936;2022-07-10T06:43:23;16.80;99.90
47961;DHT22;33721;48.852;9.936;2022-07-10T06:45:48;16.70;99.90
47961;DHT22;33721;48.852;9.936;2022-07-10T06:48:15;16.60;99.90
47961;DHT22;33721;48.852;9.936;2022-07-10T06:50:41;16.60;99.90
47961;DHT22;33721;48.852;9.936;2022-07-10T06:53:07;16.80;99.90
47961;DHT22;33721;48.852;9.936;2022-07-10T06:55:32;16.90;99.90
47961;DHT22;33721;48.852;9.936;2022-07-10T06:57:59;17.10;99.90
47961;DHT22;33721;48.852;9.936;2022-07-10T07:00:25;17.00;99.90
47961;DHT22;33721;48.852;9.936;2022-07-10T07:02:51;17.00;99.90
47961;DHT22;33721;48.852;9.936;2022-07-10T07:05:17;17.10;99.90
47961;DHT22;33721;48.852;9.936;2022-07-10T07:07:43;17.30;99.90
47961;DHT22;33721;48.852;9.936;2022-07-10T07:10:10;17.40;99.90
47961;DHT22;33721;48.852;9.936;2022-07-10T07:12:36;17.50;99.90
47961;DHT22;33721;48.852;9.936;2022-07-10T07:15:02;17.50;99.90
47961;DHT22;33721;48.852;9.936;2022-07-10T07:17:28;17.50;99.90
47961;DHT22;33721;48.852;9.936;2022-07-10T07:20:01;17.80;99.90
47961;DHT22;33721;48.852;9.936;2022-07-10T07:22:45;17.90;99.90
47961;DHT22;33721;48.852;9.936;2022-07-10T07:25:30;18.00;99.90
47961;DHT22;33721;48.852;9.936;2022-07-10T07:27:56;18.20;99.90
47961;DHT22;33721;48.852;9.936;2022-07-10T07:30:21;18.20;99.90
47961;DHT22;33721;48.852;9.936;2022-07-10T07:32:47;18.10;99.90
47961;DHT22;33721;48.852;9.936;2022-07-10T07:35:15;18.20;99.90
47961;DHT22;33721;48.852;9.936;2022-07-10T07:37:46;18.30;99.90
47961;DHT22;33721;48.852;9.936;2022-07-10T07:40:20;18.30;99.90
47961;DHT22;33721;48.852;9.936;2022-07-10T07:42:48;18.30;99.90
47961;DHT22;33721;48.852;9.936;2022-07-10T07:45:14;18.00;99.90
47961;DHT22;33721;48.852;9.936;2022-07-10T07:50:19;17.70;99.90
47961;DHT22;33721;48.852;9.936;2022-07-10T07:52:45;17.70;99.90
47961;DHT22;33721;48.852;9.936;2022-07-10T07:55:12;17.80;99.90
47961;DHT22;33721;48.852;9.936;2022-07-10T07:57:40;18.10;99.90
47961;DHT22;33721;48.852;9.936;2022-07-10T08:00:06;18.00;99.90
47961;DHT22;33721;48.852;9.936;2022-07-10T08:02:33;17.90;99.90
47961;DHT22;33721;48.852;9.936;2022-07-10T08:04:59;17.70;99.90
47961;DHT22;33721;48.852;9.936;2022-07-10T08:07:38;17.70;99.90
47961;DHT22;33721;48.852;9.936;2022-07-10T08:10:06;17.60;99.90
47961;DHT22;33721;48.852;9.936;2022-07-10T08:12:33;17.50;99.90
47961;DHT22;33721;48.852;9.936;2022-07-10T08:14:59;17.50;99.90
47961;DHT22;33721;48.852;9.936;2022-07-10T08:17:26;17.50;99.90
47961;DHT22;33721;48.852;9.936;2022-07-10T08:19:52;17.40;99.90
47961;DHT22;33721;48.852;9.936;2022-07-10T08:22:17;17.30;99.90
47961;DHT22;33721;48.852;9.936;2022-07-10T08:24:43;17.30;99.90
47961;DHT22;33721;48.852;9.936;2022-07-10T08:27:09;17.20;99.90
47961;DHT22;33721;48.852;9.936;2022-07-10T08:29:35;17.30;99.90
47961;DHT22;33721;48.852;9.936;2022-07-10T08:32:01;17.40;99.90
47961;DHT22;33721;48.852;9.936;2022-07-10T08:34:26;17.70;99.90
47961;DHT22;33721;48.852;9.936;2022-07-10T08:36:53;17.80;99.90
47961;DHT22;33721;48.852;9.936;2022-07-10T08:39:19;18.00;99.90
47961;DHT22;33721;48.852;9.936;2022-07-10T08:41:48;18.30;99.90
47961;DHT22;33721;48.852;9.936;2022-07-10T08:44:17;18.40;99.90
47961;DHT22;33721;48.852;9.936;2022-07-10T08:46:47;18.50;99.90
47961;DHT22;33721;48.852;9.936;2022-07-10T08:49:12;18.50;99.90
47961;DHT22;33721;48.852;9.936;2022-07-10T08:54:43;18.50;99.90
47961;DHT22;33721;48.852;9.936;2022-07-10T08:57:10;18.20;99.90
47961;DHT22;33721;48.852;9.936;2022-07-10T08:59:36;17.90;99.90
47961;DHT22;33721;48.852;9.936;2022-07-10T09:02:02;17.80;99.90
47961;DHT22;33721;48.852;9.936;2022-07-10T09:04:27;17.60;99.90
47961;DHT22;33721;48.852;9.936;2022-07-10T09:06:54;17.40;99.90
47961;DHT22;33721;48.852;9.936;2022-07-10T09:09:20;17.40;99.90
47961;DHT22;33721;48.852;9.936;2022-07-10T09:11:46;17.60;99.90
47961;DHT22;33721;48.852;9.936;2022-07-10T09:14:16;17.80;99.90
47961;DHT22;33721;48.852;9.936;2022-07-10T09:16:50;18.00;99.90
47961;DHT22;33721;48.852;9.936;2022-07-10T09:21:46;18.20;99.90
47961;DHT22;33721;48.852;9.936;2022-07-10T09:24:12;18.00;99.90
47961;DHT22;33721;48.852;9.936;2022-07-10T09:26:40;18.10;99.90
47961;DHT22;33721;48.852;9.936;2022-07-10T09:29:11;18.20;99.90
47961;DHT22;33721;48.852;9.936;2022-07-10T09:31:54;18.40;99.90
47961;DHT22;33721;48.852;9.936;2022-07-10T09:37:25;18.30;99.90
47961;DHT22;33721;48.852;9.936;2022-07-10T09:42:41;18.50;99.90
47961;DHT22;33721;48.852;9.936;2022-07-10T09:47:38;19.40;99.90
47961;DHT22;33721;48.852;9.936;2022-07-10T09:50:04;20.10;99.90
47961;DHT22;33721;48.852;9.936;2022-07-10T09:52:45;20.10;99.90
47961;DHT22;33721;48.852;9.936;2022-07-10T09:55:13;20.20;99.90
47961;DHT22;33721;48.852;9.936;2022-07-10T09:57:40;20.10;99.90
47961;DHT22;33721;48.852;9.936;2022-07-10T10:00:09;19.80;98.10
47961;DHT22;33721;48.852;9.936;2022-07-10T10:02:38;19.40;99.80
47961;DHT22;33721;48.852;9.936;2022-07-10T10:05:04;19.00;99.90
47961;DHT22;33721;48.852;9.936;2022-07-10T10:07:32;19.20;99.90
47961;DHT22;33721;48.852;9.936;2022-07-10T10:10:02;19.40;99.90
47961;DHT22;33721;48.852;9.936;2022-07-10T10:12:46;19.50;99.90
47961;DHT22;33721;48.852;9.936;2022-07-10T10:15:14;19.30;99.50
47961;DHT22;33721;48.852;9.936;2022-07-10T10:17:41;19.20;99.90
47961;DHT22;33721;48.852;9.936;2022-07-10T10:20:08;19.20;99.80
47961;DHT22;33721;48.852;9.936;2022-07-10T10:22:55;19.00;98.80
47961;DHT22;33721;48.852;9.936;2022-07-10T10:25:24;19.00;99.90
47961;DHT22;33721;48.852;9.936;2022-07-10T10:27:50;19.10;97.00
47961;DHT22;33721;48.852;9.936;2022-07-10T10:30:16;19.00;99.00
47961;DHT22;33721;48.852;9.936;2022-07-10T10:32:43;19.10;99.90
47961;DHT22;33721;48.852;9.936;2022-07-10T10:35:08;19.10;99.70
47961;DHT22;33721;48.852;9.936;2022-07-10T10:37:40;19.10;99.40
47961;DHT22;33721;48.852;9.936;2022-07-10T10:40:11;19.60;99.90
47961;DHT22;33721;48.852;9.936;2022-07-10T10:42:55;20.10;98.20
47961;DHT22;33721;48.852;9.936;2022-07-10T10:48:07;20.60;98.30
47961;DHT22;33721;48.852;9.936;2022-07-10T10:50:54;20.30;97.60
47961;DHT22;33721;48.852;9.936;2022-07-10T10:58:43;20.10;96.90
47961;DHT22;33721;48.852;9.936;2022-07-10T11:06:49;20.80;94.60
47961;DHT22;33721;48.852;9.936;2022-07-10T11:09:25;20.50;95.00
47961;DHT22;33721;48.852;9.936;2022-07-10T11:12:06;20.40;98.20
47961;DHT22;33721;48.852;9.936;2022-07-10T11:14:45;20.80;98.00
47961;DHT22;33721;48.852;9.936;2022-07-10T11:17:13;21.00;97.20
47961;DHT22;33721;48.852;9.936;2022-07-10T11:19:39;21.30;95.30
47961;DHT22;33721;48.852;9.936;2022-07-10T11:27:42;21.40;91.80
47961;DHT22;33721;48.852;9.936;2022-07-10T11:30:13;21.40;92.20
47961;DHT22;33721;48.852;9.936;2022-07-10T11:32:39;21.20;91.40
47961;DHT22;33721;48.852;9.936;2022-07-10T11:35:14;20.70;93.60
47961;DHT22;33721;48.852;9.936;2022-07-10T11:37:51;20.20;94.90
47961;DHT22;33721;48.852;9.936;2022-07-10T11:40:17;20.10;94.10
47961;DHT22;33721;48.852;9.936;2022-07-10T11:42:55;20.00;95.10
47961;DHT22;33721;48.852;9.936;2022-07-10T11:45:24;20.40;94.20
47961;DHT22;33721;48.852;9.936;2022-07-10T11:47:50;20.50;94.90
47961;DHT22;33721;48.852;9.936;2022-07-10T11:50:15;20.90;92.00
47961;DHT22;33721;48.852;9.936;2022-07-10T11:52:42;21.00;90.90
47961;DHT22;33721;48.852;9.936;2022-07-10T11:55:18;21.00;93.70
47961;DHT22;33721;48.852;9.936;2022-07-10T11:57:45;21.10;91.70
47961;DHT22;33721;48.852;9.936;2022-07-10T12:00:25;20.70;91.40
47961;DHT22;33721;48.852;9.936;2022-07-10T12:02:52;20.60;92.70
47961;DHT22;33721;48.852;9.936;2022-07-10T12:05:36;20.30;92.10
47961;DHT22;33721;48.852;9.936;2022-07-10T12:08:02;20.50;93.90
47961;DHT22;33721;48.852;9.936;2022-07-10T12:10:29;20.90;93.80
47961;DHT22;33721;48.852;9.936;2022-07-10T12:13:09;21.40;92.40
47961;DHT22;33721;48.852;9.936;2022-07-10T12:15:46;21.30;82.90
47961;DHT22;33721;48.852;9.936;2022-07-10T12:18:19;21.00;86.20
47961;DHT22;33721;48.852;9.936;2022-07-10T12:20:46;20.50;88.20
47961;DHT22;33721;48.852;9.936;2022-07-10T12:23:16;20.40;91.00
47961;DHT22;33721;48.852;9.936;2022-07-10T12:25:43;20.20;93.00
47961;DHT22;33721;48.852;9.936;2022-07-10T12:28:09;20.20;94.20
47961;DHT22;33721;48.852;9.936;2022-07-10T12:30:39;20.30;93.00
47961;DHT22;33721;48.852;9.936;2022-07-10T12:33:10;20.90;93.70
47961;DHT22;33721;48.852;9.936;2022-07-10T12:35:50;21.70;92.20
47961;DHT22;33721;48.852;9.936;2022-07-10T12:40:46;22.20;87.70
47961;DHT22;33721;48.852;9.936;2022-07-10T12:43:12;22.60;86.90
47961;DHT22;33721;48.852;9.936;2022-07-10T12:45:38;23.10;88.90
47961;DHT22;33721;48.852;9.936;2022-07-10T12:48:05;23.10;86.80
47961;DHT22;33721;48.852;9.936;2022-07-10T12:50:33;23.40;80.30
47961;DHT22;33721;48.852;9.936;2022-07-10T12:53:09;23.50;81.00
47961;DHT22;33721;48.852;9.936;2022-07-10T12:55:37;23.40;81.70
47961;DHT22;33721;48.852;9.936;2022-07-10T12:58:07;23.30;78.70
47961;DHT22;33721;48.852;9.936;2022-07-10T13:00:54;23.00;77.60
47961;DHT22;33721;48.852;9.936;2022-07-10T13:03:21;22.80;77.80
47961;DHT22;33721;48.852;9.936;2022-07-10T13:05:50;22.60;84.40
47961;DHT22;33721;48.852;9.936;2022-07-10T13:08:20;22.90;83.70
47961;DHT22;33721;48.852;9.936;2022-07-10T13:10:57;23.20;78.20
47961;DHT22;33721;48.852;9.936;2022-07-10T13:13:26;23.40;88.20
47961;DHT22;33721;48.852;9.936;2022-07-10T13:15:54;23.80;84.10
47961;DHT22;33721;48.852;9.936;2022-07-10T13:18:24;24.00;85.80
47961;DHT22;33721;48.852;9.936;2022-07-10T13:20:52;23.80;77.60
47961;DHT22;33721;48.852;9.936;2022-07-10T13:23:18;23.30;75.90
47961;DHT22;33721;48.852;9.936;2022-07-10T13:25:51;23.40;83.90
47961;DHT22;33721;48.852;9.936;2022-07-10T13:28:17;23.50;74.70
47961;DHT22;33721;48.852;9.936;2022-07-10T13:30:43;23.50;74.10
47961;DHT22;33721;48.852;9.936;2022-07-10T13:33:09;23.50;78.40
47961;DHT22;33721;48.852;9.936;2022-07-10T13:35:35;23.50;71.90
47961;DHT22;33721;48.852;9.936;2022-07-10T13:38:02;23.80;73.20
47961;DHT22;33721;48.852;9.936;2022-07-10T13:40:33;23.40;73.60
47961;DHT22;33721;48.852;9.936;2022-07-10T13:42:59;23.20;78.20
47961;DHT22;33721;48.852;9.936;2022-07-10T13:45:25;23.30;82.70
47961;DHT22;33721;48.852;9.936;2022-07-10T13:47:55;23.50;75.20
47961;DHT22;33721;48.852;9.936;2022-07-10T13:50:22;23.40;76.80
47961;DHT22;33721;48.852;9.936;2022-07-10T13:52:48;23.40;75.20
47961;DHT22;33721;48.852;9.936;2022-07-10T13:55:14;23.20;77.10
47961;DHT22;33721;48.852;9.936;2022-07-10T13:57:40;23.10;71.80
47961;DHT22;33721;48.852;9.936;2022-07-10T14:00:06;22.70;75.50
47961;DHT22;33721;48.852;9.936;2022-07-10T14:02:32;22.20;73.40
47961;DHT22;33721;48.852;9.936;2022-07-10T14:04:58;21.80;75.30
47961;DHT22;33721;48.852;9.936;2022-07-10T14:07:24;21.80;76.10
47961;DHT22;33721;48.852;9.936;2022-07-10T14:09:49;22.00;77.90
47961;DHT22;33721;48.852;9.936;2022-07-10T14:12:16;22.20;78.30
47961;DHT22;33721;48.852;9.936;2022-07-10T14:14:41;22.20;79.60
47961;DHT22;33721;48.852;9.936;2022-07-10T14:17:07;22.30;81.50
47961;DHT22;33721;48.852;9.936;2022-07-10T14:19:33;22.30;78.30
47961;DHT22;33721;48.852;9.936;2022-07-10T14:21:59;22.20;77.80
47961;DHT22;33721;48.852;9.936;2022-07-10T14:24:25;22.30;78.20
47961;DHT22;33721;48.852;9.936;2022-07-10T14:26:51;22.40;77.90
47961;DHT22;33721;48.852;9.936;2022-07-10T14:29:18;22.60;75.40
47961;DHT22;33721;48.852;9.936;2022-07-10T14:31:44;22.50;75.40
47961;DHT22;33721;48.852;9.936;2022-07-10T14:34:15;22.00;77.10
47961;DHT22;33721;48.852;9.936;2022-07-10T14:36:41;21.50;77.90
47961;DHT22;33721;48.852;9.936;2022-07-10T14:39:07;21.10;79.10
47961;DHT22;33721;48.852;9.936;2022-07-10T14:41:32;20.80;78.70
47961;DHT22;33721;48.852;9.936;2022-07-10T14:43:58;21.00;83.20
47961;DHT22;33721;48.852;9.936;2022-07-10T14:46:24;21.50;82.90
47961;DHT22;33721;48.852;9.936;2022-07-10T14:48:50;21.90;82.60
47961;DHT22;33721;48.852;9.936;2022-07-10T14:51:16;22.20;79.40
47961;DHT22;33721;48.852;9.936;2022-07-10T14:53:42;22.40;78.60
47961;DHT22;33721;48.852;9.936;2022-07-10T14:56:11;22.50;78.30
47961;DHT22;33721;48.852;9.936;2022-07-10T14:58:37;22.40;80.60
47961;DHT22;33721;48.852;9.936;2022-07-10T15:01:03;22.40;80.70
47961;DHT22;33721;48.852;9.936;2022-07-10T15:03:29;22.20;73.30
47961;DHT22;33721;48.852;9.936;2022-07-10T15:05:55;22.10;78.00
47961;DHT22;33721;48.852;9.936;2022-07-10T15:08:25;22.10;79.00
47961;DHT22;33721;48.852;9.936;2022-07-10T15:10:51;21.60;77.70
47961;DHT22;33721;48.852;9.936;2022-07-10T15:13:17;21.40;78.90
47961;DHT22;33721;48.852;9.936;2022-07-10T15:15:44;21.40;78.30
47961;DHT22;33721;48.852;9.936;2022-07-10T15:18:10;21.30;80.40
47961;DHT22;33721;48.852;9.936;2022-07-10T15:20:36;21.00;78.00
47961;DHT22;33721;48.852;9.936;2022-07-10T15:23:03;21.00;81.90
47961;DHT22;33721;48.852;9.936;2022-07-10T15:25:29;21.10;79.50
47961;DHT22;33721;48.852;9.936;2022-07-10T15:27:55;21.20;76.90
47961;DHT22;33721;48.852;9.936;2022-07-10T15:30:21;21.30;80.30
47961;DHT22;33721;48.852;9.936;2022-07-10T15:32:47;21.50;81.00
47961;DHT22;33721;48.852;9.936;2022-07-10T15:35:13;21.40;78.50
47961;DHT22;33721;48.852;9.936;2022-07-10T15:37:39;21.40;80.20
47961;DHT22;33721;48.852;9.936;2022-07-10T15:40:05;21.30;80.10
47961;DHT22;33721;48.852;9.936;2022-07-10T15:42:31;21.20;79.80
47961;DHT22;33721;48.852;9.936;2022-07-10T15:44:57;21.00;78.60
47961;DHT22;33721;48.852;9.936;2022-07-10T15:47:23;20.80;78.20
47961;DHT22;33721;48.852;9.936;2022-07-10T15:49:49;20.90;81.40
47961;DHT22;33721;48.852;9.936;2022-07-10T15:52:15;20.80;79.60
47961;DHT22;33721;48.852;9.936;2022-07-10T15:54:41;20.80;81.70
47961;DHT22;33721;48.852;9.936;2022-07-10T15:57:07;20.90;81.90
47961;DHT22;33721;48.852;9.936;2022-07-10T15:59:33;20.80;83.70
47961;DHT22;33721;48.852;9.936;2022-07-10T16:02:00;20.70;81.20
47961;DHT22;33721;48.852;9.936;2022-07-10T16:04:26;20.70;77.50
47961;DHT22;33721;48.852;9.936;2022-07-10T16:06:52;20.50;80.20
47961;DHT22;33721;48.852;9.936;2022-07-10T16:09:18;20.50;78.80